Terminal Aerodrome Forecast
Issued by NWS

Home | Current Version | Previous Version | Text Only | Print | Product List | Glossary On
Versions: 1 2 3 4 5 6 7 8 9 10 11 12
000
FTUS46 KPDT 302300
TAFRDM
TAF
KRDM 302320Z 0100/0124 30012G19KT P6SM FEW050 BKN060
     FM010300 31009KT P6SM FEW050
     FM010900 15004KT P6SM SKC
     FM011500 15005KT P6SM FEW250
     FM011900 32006KT P6SM SKC=

USA.gov is the U.S. government's official web portal to all federal, state and local government web resources and services.